createdAt,value
2022-12-18T00:01:50.508Z,102115.47
2022-12-18T00:04:25.305Z,102118.03
2022-12-18T00:06:53.821Z,102110.00
2022-12-18T00:09:22.332Z,102107.38
2022-12-18T00:11:52.744Z,102103.97
2022-12-18T00:14:20.966Z,102106.66
2022-12-18T00:16:48.797Z,102114.53
2022-12-18T00:19:17.038Z,102110.16
2022-12-18T00:21:45.431Z,102114.38
2022-12-18T00:24:13.609Z,102113.44
2022-12-18T00:26:41.652Z,102116.91
2022-12-18T00:29:17.490Z,102113.66
2022-12-18T00:31:45.482Z,102109.25
2022-12-18T00:34:14.268Z,102119.63
2022-12-18T00:36:42.735Z,102123.06
2022-12-18T00:39:12.362Z,102123.75
2022-12-18T00:42:17.052Z,102128.00
2022-12-18T00:44:44.840Z,102122.59
2022-12-18T00:47:12.621Z,102124.06
2022-12-18T00:49:40.559Z,102136.25
2022-12-18T00:52:08.652Z,102137.38
2022-12-18T00:54:36.813Z,102144.28
2022-12-18T00:57:04.940Z,102142.47
2022-12-18T00:59:32.815Z,102148.81
2022-12-18T01:02:00.825Z,102148.94
2022-12-18T01:04:29.546Z,102151.66
2022-12-18T01:06:57.517Z,102158.78
2022-12-18T01:09:25.704Z,102164.53
2022-12-18T01:11:53.797Z,102166.16
2022-12-18T01:14:21.811Z,102179.41
2022-12-18T01:16:49.786Z,102172.56
2022-12-18T01:19:17.718Z,102173.31
2022-12-18T01:21:47.923Z,102183.16
2022-12-18T01:24:15.850Z,102190.28
2022-12-18T01:26:44.040Z,102191.97
2022-12-18T01:29:11.968Z,102200.59
2022-12-18T01:31:39.974Z,102202.34
2022-12-18T01:34:08.262Z,102205.03
2022-12-18T01:36:38.542Z,102205.03
2022-12-18T01:39:09.154Z,102207.47
2022-12-18T01:41:55.676Z,102207.13
2022-12-18T01:45:00.813Z,102206.56
2022-12-18T01:47:46.398Z,102207.41
2022-12-18T01:50:33.058Z,102217.31
2022-12-18T01:53:23.509Z,102218.28
2022-12-18T01:55:54.308Z,102221.75
2022-12-18T01:58:30.090Z,102227.06
2022-12-18T02:00:58.057Z,102224.47
2022-12-18T02:03:26.119Z,102222.66
2022-12-18T02:06:09.369Z,102224.34
2022-12-18T02:09:12.138Z,102229.47
2022-12-18T02:11:59.611Z,102241.91
2022-12-18T02:14:58.190Z,102240.28
2022-12-18T02:17:51.500Z,102237.69
2022-12-18T02:20:49.134Z,102235.06
2022-12-18T02:23:43.047Z,102243.81
2022-12-18T02:26:35.626Z,102246.56
2022-12-18T02:29:12.913Z,102242.19
2022-12-18T02:31:51.050Z,102243.72
2022-12-18T02:34:21.243Z,102241.22
2022-12-18T02:36:51.219Z,102240.47
2022-12-18T02:39:23.091Z,102246.69
2022-12-18T02:42:00.718Z,102257.28
2022-12-18T02:44:28.681Z,102253.63
2022-12-18T02:46:57.027Z,102265.59
2022-12-18T02:49:46.102Z,102275.50
2022-12-18T02:52:37.531Z,102279.84
2022-12-18T02:55:20.838Z,102276.31
2022-12-18T02:58:02.714Z,102278.13
2022-12-18T03:00:42.859Z,102273.75
2022-12-18T03:03:10.952Z,102282.56
2022-12-18T03:05:51.475Z,102285.22
2022-12-18T03:08:29.239Z,102271.91
2022-12-18T03:11:04.426Z,102284.09
2022-12-18T03:13:41.070Z,102274.19
2022-12-18T03:16:13.329Z,102276.84
2022-12-18T03:19:05.317Z,102276.09
2022-12-18T03:21:39.887Z,102275.28
2022-12-18T03:24:10.974Z,102274.56
2022-12-18T03:26:44.547Z,102280.72
2022-12-18T03:29:20.291Z,102280.78
2022-12-18T03:31:56.902Z,102287.44
2022-12-18T03:34:30.646Z,102285.97
2022-12-18T03:37:03.207Z,102287.78
2022-12-18T03:39:33.853Z,102286.84
2022-12-18T03:42:13.626Z,102294.69
2022-12-18T03:44:45.370Z,102299.16
2022-12-18T03:47:23.972Z,102294.59
2022-12-18T03:50:12.830Z,102300.91
2022-12-18T03:52:58.619Z,102300.19
2022-12-18T03:55:30.798Z,102294.00
2022-12-18T03:58:05.071Z,102302.69
2022-12-18T04:00:44.796Z,102308.88
2022-12-18T04:03:14.978Z,102305.28
2022-12-18T04:05:51.572Z,102316.53
2022-12-18T04:08:23.324Z,102318.44
2022-12-18T04:11:01.294Z,102310.63
2022-12-18T04:13:30.916Z,102316.81
2022-12-18T04:16:01.558Z,102319.38
2022-12-18T04:18:29.775Z,102326.53
2022-12-18T04:20:57.618Z,102321.22
2022-12-18T04:23:26.089Z,102326.56
2022-12-18T04:25:57.451Z,102322.22
2022-12-18T04:28:40.273Z,102329.19
2022-12-18T04:31:08.940Z,102338.03
2022-12-18T04:33:37.636Z,102338.97
2022-12-18T04:36:06.301Z,102346.94
2022-12-18T04:38:34.409Z,102350.38
2022-12-18T04:41:08.444Z,102349.56
2022-12-18T04:43:37.116Z,102353.00
2022-12-18T04:46:09.215Z,102347.78
2022-12-18T04:48:38.322Z,102353.72
2022-12-18T04:51:07.740Z,102359.09
2022-12-18T04:53:35.691Z,102373.34
2022-12-18T04:56:08.471Z,102368.06
2022-12-18T04:58:37.742Z,102374.22
2022-12-18T05:01:06.337Z,102379.50
2022-12-18T05:03:34.935Z,102374.28
2022-12-18T05:06:03.537Z,102372.47
2022-12-18T05:08:31.761Z,102377.88
2022-12-18T05:11:01.367Z,102395.44
2022-12-18T05:13:30.007Z,102391.88
2022-12-18T05:15:57.858Z,102392.53
2022-12-18T05:18:26.718Z,102399.59
2022-12-18T05:20:55.108Z,102398.88
2022-12-18T05:23:25.126Z,102399.66
2022-12-18T05:25:54.833Z,102398.06
2022-12-18T05:28:23.621Z,102407.84
2022-12-18T05:30:56.830Z,102397.25
2022-12-18T05:33:27.144Z,102400.75
2022-12-18T05:35:56.811Z,102408.59
2022-12-18T05:38:26.955Z,102412.09
2022-12-18T05:40:54.995Z,102413.59
2022-12-18T05:43:24.108Z,102421.59
2022-12-18T05:45:52.559Z,102419.72
2022-12-18T05:48:21.048Z,102431.63
2022-12-18T05:50:51.262Z,102431.72
2022-12-18T05:53:21.615Z,102433.47
2022-12-18T05:55:49.738Z,102431.66
2022-12-18T05:58:17.673Z,102435.38
2022-12-18T06:00:46.787Z,102429.22
2022-12-18T06:03:15.508Z,102434.56
2022-12-18T06:05:46.184Z,102439.56
2022-12-18T06:08:14.695Z,102460.03
2022-12-18T06:10:43.154Z,102458.25
2022-12-18T06:13:11.069Z,102463.59
2022-12-18T06:15:39.373Z,102468.84
2022-12-18T06:18:07.476Z,102470.25
2022-12-18T06:20:37.608Z,102467.84
2022-12-18T06:23:05.393Z,102481.94
2022-12-18T06:25:34.205Z,102477.84
2022-12-18T06:28:02.153Z,102480.47
2022-12-18T06:30:29.996Z,102485.84
2022-12-18T06:32:57.821Z,102493.53
2022-12-18T06:35:25.747Z,102492.63
2022-12-18T06:37:53.503Z,102500.31
2022-12-18T06:40:21.704Z,102502.22
2022-12-18T06:42:49.770Z,102503.25
2022-12-18T06:45:17.680Z,102497.91
2022-12-18T06:47:45.532Z,102504.84
2022-12-18T06:50:14.263Z,102505.91
2022-12-18T06:52:42.161Z,102505.91
2022-12-18T06:55:10.254Z,102513.84
2022-12-18T06:57:38.633Z,102512.94
2022-12-18T07:00:07.733Z,102513.75
2022-12-18T07:02:35.775Z,102520.06
2022-12-18T07:05:11.107Z,102525.50
2022-12-18T07:07:39.268Z,102529.06
2022-12-18T07:10:07.317Z,102529.94
2022-12-18T07:12:35.341Z,102538.78
2022-12-18T07:15:03.944Z,102546.75
2022-12-18T07:17:31.983Z,102548.41
2022-12-18T07:19:59.935Z,102544.06
2022-12-18T07:22:28.189Z,102553.81
2022-12-18T07:24:56.603Z,102561.63
2022-12-18T07:27:25.052Z,102552.72
2022-12-18T07:29:52.913Z,102562.25
2022-12-18T07:32:21.001Z,102566.78
2022-12-18T07:34:48.829Z,102574.66
2022-12-18T07:37:16.893Z,102575.56
2022-12-18T07:39:45.476Z,102575.63
2022-12-18T07:42:31.899Z,102576.59
2022-12-18T07:45:01.425Z,102586.50
2022-12-18T07:47:29.734Z,102588.81
2022-12-18T07:49:59.089Z,102586.16
2022-12-18T07:52:27.760Z,102595.88
2022-12-18T07:54:55.790Z,102596.84
2022-12-18T07:57:48.883Z,102601.47
2022-12-18T08:00:13.362Z,102606.72
2022-12-18T08:02:42.314Z,102616.28
2022-12-18T08:05:10.680Z,102622.44
2022-12-18T08:07:38.946Z,102635.44
2022-12-18T08:10:08.204Z,102637.25
2022-12-18T08:12:36.375Z,102640.66
2022-12-18T08:15:04.986Z,102644.94
2022-12-18T08:17:34.281Z,102649.59
2022-12-18T08:20:03.084Z,102649.59
2022-12-18T08:22:31.969Z,102660.13
2022-12-18T08:25:00.154Z,102663.53
2022-12-18T08:27:29.908Z,102664.56
2022-12-18T08:29:58.905Z,102665.53
2022-12-18T08:32:28.802Z,102669.03
2022-12-18T08:34:56.933Z,102673.50
2022-12-18T08:37:25.074Z,102673.38
2022-12-18T08:39:52.816Z,102686.72
2022-12-18T08:42:39.000Z,102685.72
2022-12-18T08:45:07.544Z,102692.72
2022-12-18T08:47:35.745Z,102689.97
2022-12-18T08:50:04.303Z,102696.25
2022-12-18T08:52:33.820Z,102698.75
2022-12-18T08:55:02.091Z,102698.00
2022-12-18T08:57:30.148Z,102703.53
2022-12-18T08:59:57.961Z,102701.63
2022-12-18T09:02:26.225Z,102707.81
2022-12-18T09:04:57.589Z,102705.78
2022-12-18T09:07:26.057Z,102710.19
2022-12-18T09:09:54.066Z,102717.47
2022-12-18T09:12:22.041Z,102713.88
2022-12-18T09:14:50.112Z,102714.66
2022-12-18T09:17:18.204Z,102712.19
2022-12-18T09:19:46.059Z,102712.88
2022-12-18T09:22:13.907Z,102710.25
2022-12-18T09:24:41.752Z,102721.75
2022-12-18T09:27:09.558Z,102719.03
2022-12-18T09:29:37.716Z,102715.50
2022-12-18T09:32:05.806Z,102721.44
2022-12-18T09:34:33.890Z,102715.44
2022-12-18T09:37:01.725Z,102716.25
2022-12-18T09:39:29.580Z,102712.81
2022-12-18T09:41:59.708Z,102718.94
2022-12-18T09:44:45.065Z,102709.97
2022-12-18T09:47:24.787Z,102707.28
2022-12-18T09:49:59.211Z,102708.09
2022-12-18T09:52:30.107Z,102698.50
2022-12-18T09:55:06.551Z,102705.38
2022-12-18T09:57:37.941Z,102703.72
2022-12-18T10:00:26.161Z,102708.66
2022-12-18T10:03:02.324Z,102695.06
2022-12-18T10:05:33.057Z,102701.06
2022-12-18T10:08:21.091Z,102689.53
2022-12-18T10:10:48.911Z,102692.06
2022-12-18T10:13:40.471Z,102686.31
2022-12-18T10:16:35.276Z,102684.16
2022-12-18T10:19:05.489Z,102678.72
2022-12-18T10:21:57.745Z,102684.09
2022-12-18T10:24:53.999Z,102681.44
2022-12-18T10:27:27.268Z,102685.66
2022-12-18T10:29:55.853Z,102683.88
2022-12-18T10:32:29.751Z,102687.25
2022-12-18T10:35:00.671Z,102689.88
2022-12-18T10:37:30.956Z,102693.34
2022-12-18T10:40:22.418Z,102690.66
2022-12-18T10:43:13.951Z,102695.88
2022-12-18T10:45:42.805Z,102689.72
2022-12-18T10:48:22.666Z,102688.59
2022-12-18T10:53:43.776Z,102686.03
2022-12-18T10:56:12.100Z,102694.84
2022-12-18T10:58:41.093Z,102703.09
2022-12-18T11:01:16.816Z,102693.09
2022-12-18T11:03:47.442Z,102690.38
2022-12-18T11:06:23.086Z,102692.88
2022-12-18T11:09:12.848Z,102681.41
2022-12-18T11:11:42.395Z,102670.78
2022-12-18T11:14:19.146Z,102678.66
2022-12-18T11:17:23.697Z,102670.03
2022-12-18T11:19:40.910Z,102671.78
2022-12-18T11:22:24.453Z,102664.00
2022-12-18T11:25:30.163Z,102675.38
2022-12-18T11:27:55.556Z,102663.34
2022-12-18T11:30:25.669Z,102659.69
2022-12-18T11:33:18.695Z,102655.94
2022-12-18T11:36:00.949Z,102661.50
2022-12-18T11:38:36.474Z,102656.69
2022-12-18T11:41:45.905Z,102653.28
2022-12-18T11:44:37.964Z,102646.41
2022-12-18T11:47:49.347Z,102651.66
2022-12-18T11:50:25.138Z,102651.78
2022-12-18T11:52:58.275Z,102647.84
2022-12-18T11:55:34.571Z,102641.63
2022-12-18T11:58:36.385Z,102640.72
2022-12-18T12:01:15.465Z,102641.47
2022-12-18T12:04:25.229Z,102638.38
2022-12-18T12:07:18.301Z,102632.28
2022-12-18T12:10:06.660Z,102632.38
2022-12-18T12:12:50.362Z,102643.66
2022-12-18T12:15:18.298Z,102644.84
2022-12-18T12:18:20.132Z,102641.66
2022-12-18T12:21:05.251Z,102644.94
2022-12-18T12:24:14.539Z,102641.88
2022-12-18T12:27:08.560Z,102624.03
2022-12-18T12:30:14.240Z,102635.63
2022-12-18T12:33:01.318Z,102641.84
2022-12-18T12:35:40.038Z,102631.63
2022-12-18T12:38:19.742Z,102640.41
2022-12-18T12:41:02.890Z,102630.13
2022-12-18T12:43:50.573Z,102630.41
2022-12-18T12:46:22.509Z,102621.88
2022-12-18T12:48:57.348Z,102626.66
2022-12-18T12:51:37.636Z,102625.81
2022-12-18T12:54:13.072Z,102623.59
2022-12-18T12:57:00.429Z,102628.03
2022-12-18T12:59:48.172Z,102625.38
2022-12-18T13:02:18.938Z,102615.47
2022-12-18T13:05:08.675Z,102617.63
2022-12-18T13:07:55.025Z,102620.56
2022-12-18T13:10:43.459Z,102619.44
2022-12-18T13:13:17.204Z,102611.03
2022-12-18T13:16:07.469Z,102600.94
2022-12-18T13:18:35.800Z,102606.19
2022-12-18T13:21:19.558Z,102603.75
2022-12-18T13:23:47.785Z,102611.53
2022-12-18T13:26:21.942Z,102607.78
2022-12-18T13:28:57.139Z,102601.97
2022-12-18T13:31:30.798Z,102596.56
2022-12-18T13:34:27.660Z,102601.41
2022-12-18T13:37:17.884Z,102604.84
2022-12-18T13:39:46.084Z,102600.38
2022-12-18T13:42:35.279Z,102608.19
2022-12-18T13:45:23.201Z,102600.56
2022-12-18T13:47:51.390Z,102606.09
2022-12-18T13:50:28.558Z,102608.66
2022-12-18T13:53:00.490Z,102615.84
2022-12-18T13:55:28.541Z,102606.84
2022-12-18T13:58:06.690Z,102606.63
2022-12-18T14:00:35.549Z,102615.63
2022-12-18T14:03:03.791Z,102619.34
2022-12-18T14:05:33.938Z,102612.31
2022-12-18T14:08:06.987Z,102601.78
2022-12-18T14:10:48.862Z,102611.03
2022-12-18T14:13:35.587Z,102600.09
2022-12-18T14:16:05.893Z,102608.28
2022-12-18T14:18:45.644Z,102610.38
2022-12-18T14:21:24.280Z,102612.25
2022-12-18T14:24:06.763Z,102612.34
2022-12-18T14:26:34.935Z,102602.72
2022-12-18T14:29:24.384Z,102603.66
2022-12-18T14:32:14.985Z,102610.06
2022-12-18T14:34:55.128Z,102611.00
2022-12-18T14:37:26.082Z,102608.38
2022-12-18T14:40:08.645Z,102609.28
2022-12-18T14:42:38.219Z,102607.41
2022-12-18T14:45:42.169Z,102605.75
2022-12-18T14:48:15.596Z,102617.13
2022-12-18T14:50:56.966Z,102614.38
2022-12-18T14:53:34.123Z,102629.63
2022-12-18T14:56:03.248Z,102622.53
2022-12-18T14:58:31.263Z,102630.47
2022-12-18T15:00:59.224Z,102631.41
2022-12-18T15:03:27.076Z,102627.72
2022-12-18T15:05:55.160Z,102640.19
2022-12-18T15:08:31.436Z,102637.47
2022-12-18T15:10:59.894Z,102643.84
2022-12-18T15:13:28.043Z,102643.16
2022-12-18T15:16:01.346Z,102643.03
2022-12-18T15:18:33.196Z,102650.00
2022-12-18T15:21:10.221Z,102647.63
2022-12-18T15:23:52.289Z,102645.88
2022-12-18T15:26:22.890Z,102643.25
2022-12-18T15:28:52.583Z,102651.28
2022-12-18T15:31:35.876Z,102662.81
2022-12-18T15:34:09.375Z,102669.88
2022-12-18T15:36:37.597Z,102663.81
2022-12-18T15:39:06.687Z,102667.28
2022-12-18T15:41:36.654Z,102659.38
2022-12-18T15:44:24.594Z,102674.44
2022-12-18T15:46:52.458Z,102674.28
2022-12-18T15:49:20.321Z,102673.06
2022-12-18T15:51:53.738Z,102684.50
2022-12-18T15:54:40.811Z,102694.28
2022-12-18T15:57:24.791Z,102689.84
2022-12-18T15:59:53.950Z,102690.84
2022-12-18T16:02:23.919Z,102689.88
2022-12-18T16:04:53.283Z,102690.81
2022-12-18T16:07:24.585Z,102684.88
2022-12-18T16:09:53.483Z,102688.38
2022-12-18T16:12:25.390Z,102699.06
2022-12-18T16:14:53.488Z,102692.06
2022-12-18T16:17:21.822Z,102696.63
2022-12-18T16:19:49.720Z,102700.16
2022-12-18T16:22:25.931Z,102702.84
2022-12-18T16:24:55.312Z,102708.09
2022-12-18T16:27:23.849Z,102713.50
2022-12-18T16:29:51.756Z,102704.69
2022-12-18T16:32:23.297Z,102707.41
2022-12-18T16:34:51.271Z,102712.81
2022-12-18T16:37:18.942Z,102710.88
2022-12-18T16:39:46.893Z,102705.66
2022-12-18T16:42:20.159Z,102710.19
2022-12-18T16:44:49.235Z,102713.69
2022-12-18T16:47:18.383Z,102712.63
2022-12-18T16:49:46.509Z,102718.88
2022-12-18T16:52:15.099Z,102704.63
2022-12-18T16:54:43.065Z,102714.50
2022-12-18T16:57:14.221Z,102711.94
2022-12-18T16:59:42.097Z,102710.19
2022-12-18T17:02:17.148Z,102715.34
2022-12-18T17:04:47.393Z,102716.28
2022-12-18T17:07:16.149Z,102713.56
2022-12-18T17:09:44.066Z,102710.13
2022-12-18T17:12:11.948Z,102722.63
2022-12-18T17:14:39.777Z,102723.06
2022-12-18T17:17:20.988Z,102728.19
2022-12-18T17:19:50.058Z,102723.56
2022-12-18T17:22:18.179Z,102731.72
2022-12-18T17:24:47.454Z,102721.84
2022-12-18T17:27:15.532Z,102724.34
2022-12-18T17:29:47.998Z,102721.69
2022-12-18T17:32:17.543Z,102723.47
2022-12-18T17:34:45.615Z,102729.84
2022-12-18T17:37:13.613Z,102729.97
2022-12-18T17:39:42.276Z,102734.50
2022-12-18T17:42:14.874Z,102734.56
2022-12-18T17:44:44.143Z,102734.44
2022-12-18T17:47:13.364Z,102736.16
2022-12-18T17:49:41.370Z,102740.44
2022-12-18T17:52:09.221Z,102740.75
2022-12-18T17:54:39.938Z,102739.06
2022-12-18T17:57:08.099Z,102735.63
2022-12-18T17:59:35.969Z,102739.09
2022-12-18T18:02:04.138Z,102735.56
2022-12-18T18:04:32.868Z,102731.09
2022-12-18T18:07:00.808Z,102743.41
2022-12-18T18:09:28.617Z,102750.38
2022-12-18T18:12:15.790Z,102746.97
2022-12-18T18:14:43.749Z,102755.00
2022-12-18T18:17:11.705Z,102765.59
2022-12-18T18:19:39.692Z,102767.41
2022-12-18T18:22:08.395Z,102774.50
2022-12-18T18:24:36.439Z,102767.44
2022-12-18T18:27:04.480Z,102765.69
2022-12-18T18:29:32.262Z,102772.75
2022-12-18T18:32:00.260Z,102765.72
2022-12-18T18:34:30.767Z,102761.31
2022-12-18T18:36:59.219Z,102764.84
2022-12-18T18:39:27.298Z,102755.16
2022-12-18T18:41:57.930Z,102749.00
2022-12-18T18:44:26.571Z,102756.03
2022-12-18T18:46:56.642Z,102749.81
2022-12-18T18:49:27.564Z,102750.72
2022-12-18T18:51:58.074Z,102744.56
2022-12-18T18:54:26.470Z,102756.91
2022-12-18T18:59:43.048Z,102760.44
2022-12-18T19:02:13.488Z,102761.31
2022-12-18T19:04:45.545Z,102764.81
2022-12-18T19:07:26.134Z,102754.22
2022-12-18T19:10:04.714Z,102770.09
2022-12-18T19:12:52.950Z,102762.97
2022-12-18T19:15:22.138Z,102769.13
2022-12-18T19:17:50.126Z,102768.22
2022-12-18T19:20:18.400Z,102776.25
2022-12-18T19:22:54.836Z,102775.34
2022-12-18T19:25:38.316Z,102770.97
2022-12-18T19:28:15.349Z,102765.69
2022-12-18T19:30:54.515Z,102769.25
2022-12-18T19:33:44.855Z,102763.06
2022-12-18T19:36:25.526Z,102769.19
2022-12-18T19:38:55.375Z,102772.69
2022-12-18T19:41:25.597Z,102777.09
2022-12-18T19:43:55.697Z,102779.72
2022-12-18T19:46:24.627Z,102773.56
2022-12-18T19:48:52.977Z,102775.34
2022-12-18T19:51:24.703Z,102771.72
2022-12-18T19:53:58.416Z,102767.31
2022-12-18T19:56:29.800Z,102781.53
2022-12-18T19:58:57.893Z,102772.69
2022-12-18T20:01:27.443Z,102777.13
2022-12-18T20:03:57.479Z,102789.44
2022-12-18T20:06:46.102Z,102788.56
2022-12-18T20:09:14.137Z,102785.94
2022-12-18T20:11:43.164Z,102785.94
2022-12-18T20:14:12.557Z,102797.34
2022-12-18T20:16:41.877Z,102804.38
2022-12-18T20:19:12.429Z,102817.50
2022-12-18T20:21:41.451Z,102813.06
2022-12-18T20:24:09.409Z,102819.13
2022-12-18T20:26:37.270Z,102829.53
2022-12-18T20:29:05.101Z,102832.31
2022-12-18T20:31:33.138Z,102838.84
2022-12-18T20:34:02.696Z,102836.41
2022-12-18T20:36:34.084Z,102826.06
2022-12-18T20:39:05.297Z,102826.22
2022-12-18T20:41:38.258Z,102811.13
2022-12-18T20:44:21.630Z,102829.66
2022-12-18T20:47:00.335Z,102821.63
2022-12-18T20:49:31.859Z,102819.03
2022-12-18T20:51:59.819Z,102818.97
2022-12-18T20:54:28.035Z,102821.72
2022-12-18T20:56:56.477Z,102821.78
2022-12-18T20:59:25.746Z,102839.44
2022-12-18T21:01:55.172Z,102836.72
2022-12-18T21:04:23.663Z,102840.41
2022-12-18T21:06:57.822Z,102839.41
2022-12-18T21:09:29.981Z,102838.56
2022-12-18T21:12:29.306Z,102846.28
2022-12-18T21:15:01.822Z,102857.56
2022-12-18T21:17:34.585Z,102855.88
2022-12-18T21:20:17.487Z,102866.56
2022-12-18T21:22:46.963Z,102870.03
2022-12-18T21:25:14.913Z,102860.47
2022-12-18T21:27:42.909Z,102859.72
2022-12-18T21:30:10.901Z,102856.16
2022-12-18T21:32:38.687Z,102850.78
2022-12-18T21:35:06.479Z,102854.22
2022-12-18T21:37:34.432Z,102857.84
2022-12-18T21:40:02.532Z,102845.53
2022-12-18T21:42:48.869Z,102849.03
2022-12-18T21:45:16.673Z,102855.22
2022-12-18T21:47:44.509Z,102852.84
2022-12-18T21:50:12.904Z,102860.25
2022-12-18T21:52:41.041Z,102847.81
2022-12-18T21:55:10.253Z,102851.88
2022-12-18T21:57:39.333Z,102855.78
2022-12-18T22:00:18.727Z,102852.44
2022-12-18T22:03:17.645Z,102848.22
2022-12-18T22:05:37.023Z,102842.94
2022-12-18T22:08:05.192Z,102836.53
2022-12-18T22:10:33.339Z,102847.13
2022-12-18T22:13:01.535Z,102848.97
2022-12-18T22:15:29.466Z,102848.94
2022-12-18T22:18:00.263Z,102845.44
2022-12-18T22:20:30.045Z,102852.38
2022-12-18T22:22:58.623Z,102854.13
2022-12-18T22:25:27.750Z,102857.66
2022-12-18T22:28:14.014Z,102854.16
2022-12-18T22:30:43.250Z,102855.00
2022-12-18T22:33:11.277Z,102858.59
2022-12-18T22:35:39.095Z,102856.75
2022-12-18T22:38:07.007Z,102854.22
2022-12-18T22:40:34.783Z,102844.56
2022-12-18T22:43:02.762Z,102841.78
2022-12-18T22:45:30.724Z,102857.47
2022-12-18T22:48:00.506Z,102854.63
2022-12-18T22:50:28.337Z,102864.44
2022-12-18T22:52:56.268Z,102853.94
2022-12-18T22:55:24.104Z,102860.03
2022-12-18T22:57:52.274Z,102863.63
2022-12-18T23:00:24.281Z,102853.19
2022-12-18T23:03:00.336Z,102848.09
2022-12-18T23:05:30.892Z,102832.69
2022-12-18T23:07:59.172Z,102831.19
2022-12-18T23:10:27.833Z,102833.94
2022-12-18T23:12:55.772Z,102831.16
2022-12-18T23:15:27.781Z,102832.13
2022-12-18T23:17:58.252Z,102829.25
2022-12-18T23:20:27.469Z,102823.94
2022-12-18T23:22:55.621Z,102825.16
2022-12-18T23:25:23.755Z,102828.81
2022-12-18T23:27:51.532Z,102831.50
2022-12-18T23:30:20.272Z,102833.91
2022-12-18T23:32:48.448Z,102830.66
2022-12-18T23:35:17.439Z,102827.09
2022-12-18T23:37:59.138Z,102830.47
2022-12-18T23:40:29.544Z,102834.75
2022-12-18T23:42:59.727Z,102838.44
2022-12-18T23:45:27.777Z,102840.34
2022-12-18T23:47:55.460Z,102849.94
2022-12-18T23:50:28.866Z,102843.75
2022-12-18T23:53:00.815Z,102845.38
2022-12-18T23:55:37.530Z,102840.25
2022-12-18T23:58:05.248Z,102832.19
